Time;durP1;ratioP1;P1;durP2;ratioP2;P2;SDS_P1;SDS_P2;PMS_P1;PMS_P2;Temp;Humidity;BMP_temperature;BMP_pressure;BME280_temperature;BME280_humidity;BME280_pressure;Samples;Min_cycle;Max_cycle;Signal;HPM_P1;HPM_P2
2023/09/21 00:01:03;;;;;;;2.60;1.42;;;21.90;99.90;;;;;;5031109;28;20112;-43
2023/09/21 00:03:29;;;;;;;1.60;1.13;;;21.80;99.90;;;;;;5031174;28;20376;-40
2023/09/21 00:05:55;;;;;;;2.45;1.52;;;21.80;99.90;;;;;;5030984;28;20049;-43
2023/09/21 00:08:23;;;;;;;2.33;1.33;;;21.80;99.90;;;;;;5031214;28;20057;-40
2023/09/21 00:10:52;;;;;;;4.30;1.40;;;21.80;99.90;;;;;;5031077;28;20029;-41
2023/09/21 00:13:18;;;;;;;2.72;1.30;;;21.80;99.90;;;;;;5031104;28;20060;-46
2023/09/21 00:15:45;;;;;;;1.55;1.25;;;21.80;99.90;;;;;;5030900;28;20017;-41
2023/09/21 00:18:10;;;;;;;1.83;1.30;;;21.90;99.90;;;;;;5031273;28;20163;-40
2023/09/21 00:20:42;;;;;;;2.47;1.30;;;21.90;99.90;;;;;;5030932;28;20071;-46
2023/09/21 00:23:13;;;;;;;2.35;1.40;;;21.80;99.90;;;;;;5031080;28;20025;-45
2023/09/21 00:25:40;;;;;;;3.42;1.20;;;21.80;99.90;;;;;;5031243;28;20030;-44
2023/09/21 00:28:07;;;;;;;2.65;1.30;;;21.80;99.90;;;;;;5031083;28;20022;-42
2023/09/21 00:30:36;;;;;;;2.38;1.40;;;21.80;99.90;;;;;;5033471;28;20033;-40
2023/09/21 00:33:08;;;;;;;3.20;1.30;;;21.80;99.90;;;;;;5034843;28;20029;-41
2023/09/21 00:35:39;;;;;;;2.05;1.10;;;21.80;99.90;;;;;;5034743;28;20118;-40
2023/09/21 00:38:14;;;;;;;3.95;1.38;;;21.80;99.90;;;;;;5034972;28;20021;-39
2023/09/21 00:40:40;;;;;;;2.53;1.42;;;21.80;99.90;;;;;;5034785;28;20029;-40
2023/09/21 00:43:09;;;;;;;2.50;1.55;;;21.80;99.90;;;;;;5035321;28;20040;-39
2023/09/21 00:45:36;;;;;;;3.35;1.70;;;21.80;99.90;;;;;;5035046;28;20104;-41
2023/09/21 00:48:12;;;;;;;1.88;1.30;;;21.80;99.90;;;;;;5034563;28;20029;-41
2023/09/21 00:50:41;;;;;;;4.75;1.55;;;21.80;99.90;;;;;;5034486;28;20029;-42
2023/09/21 00:53:12;;;;;;;4.10;1.40;;;21.80;99.90;;;;;;5034378;28;20053;-42
2023/09/21 00:55:39;;;;;;;3.33;1.40;;;21.80;99.90;;;;;;5034197;28;20064;-40
2023/09/21 00:58:05;;;;;;;5.18;1.65;;;21.80;99.90;;;;;;5034509;28;20029;-39
2023/09/21 01:00:32;;;;;;;3.38;1.50;;;21.80;99.90;;;;;;5034209;28;20014;-39
2023/09/21 01:03:07;;;;;;;1.92;1.52;;;21.80;99.90;;;;;;5034253;28;20135;-39
2023/09/21 01:05:34;;;;;;;1.63;1.08;;;21.80;99.90;;;;;;5034041;28;20026;-39
2023/09/21 01:08:01;;;;;;;3.42;1.40;;;21.80;99.90;;;;;;5034076;28;20032;-40
2023/09/21 01:10:28;;;;;;;3.63;1.60;;;21.80;99.90;;;;;;5034200;28;20562;-41
2023/09/21 01:12:53;;;;;;;3.72;1.55;;;21.80;99.90;;;;;;5034115;28;20053;-40
2023/09/21 01:15:20;;;;;;;2.95;1.33;;;21.80;99.90;;;;;;5033968;28;20056;-38
2023/09/21 01:17:46;;;;;;;3.38;1.70;;;21.80;99.90;;;;;;5034378;28;20021;-39
2023/09/21 01:20:27;;;;;;;3.03;1.60;;;21.80;99.90;;;;;;5033973;28;20121;-39
2023/09/21 01:23:28;;;;;;;4.93;1.60;;;21.80;99.90;;;;;;5033999;28;20084;-40
2023/09/21 01:25:54;;;;;;;2.58;1.52;;;21.80;99.90;;;;;;5015493;28;20108;-41
2023/09/21 01:28:22;;;;;;;2.15;1.60;;;21.80;99.90;;;;;;5033853;28;20109;-40
2023/09/21 01:30:56;;;;;;;1.65;1.20;;;21.70;99.90;;;;;;5033681;28;20415;-39
2023/09/21 01:33:23;;;;;;;2.67;1.73;;;21.70;99.90;;;;;;5033751;28;20026;-38
2023/09/21 01:35:49;;;;;;;2.60;1.58;;;21.70;99.90;;;;;;5033506;28;20032;-40
2023/09/21 01:38:15;;;;;;;2.13;1.63;;;21.70;99.90;;;;;;5033708;28;20017;-38
2023/09/21 01:40:41;;;;;;;2.92;1.60;;;21.70;99.90;;;;;;5032684;28;20034;-38
2023/09/21 01:43:09;;;;;;;2.60;1.77;;;21.70;99.90;;;;;;5033279;28;20061;-41
2023/09/21 01:45:37;;;;;;;3.00;1.60;;;21.70;99.90;;;;;;5033377;28;20032;-38
2023/09/21 01:48:08;;;;;;;2.35;1.40;;;21.70;99.90;;;;;;5033399;28;20112;-39
2023/09/21 01:50:43;;;;;;;3.25;1.40;;;21.70;99.90;;;;;;5033361;28;20053;-40
2023/09/21 01:53:12;;;;;;;2.15;1.40;;;21.80;99.90;;;;;;5033375;28;20053;-38
2023/09/21 01:55:39;;;;;;;3.40;1.50;;;21.70;99.90;;;;;;5033163;28;20022;-40
2023/09/21 01:58:06;;;;;;;2.40;1.40;;;21.70;99.90;;;;;;5033822;28;20051;-39
2023/09/21 02:00:36;;;;;;;3.38;1.75;;;21.70;99.90;;;;;;5033481;28;20104;-40
2023/09/21 02:03:04;;;;;;;2.88;1.40;;;21.70;99.90;;;;;;5033298;28;20100;-40
2023/09/21 02:05:30;;;;;;;3.03;1.50;;;21.70;99.90;;;;;;5032984;28;20057;-40
2023/09/21 02:07:55;;;;;;;3.95;1.50;;;21.70;99.90;;;;;;5033093;28;20509;-40
2023/09/21 02:10:22;;;;;;;2.15;1.27;;;21.70;99.90;;;;;;5032910;28;20268;-38
2023/09/21 02:12:58;;;;;;;3.22;1.52;;;21.70;99.90;;;;;;5032902;28;20088;-39
2023/09/21 02:15:25;;;;;;;1.42;1.33;;;21.70;99.90;;;;;;5032752;28;20402;-41
2023/09/21 02:17:55;;;;;;;3.15;1.50;;;21.70;99.90;;;;;;5032896;28;20053;-39
2023/09/21 02:20:22;;;;;;;2.65;1.40;;;21.70;99.90;;;;;;5033064;28;20053;-38
2023/09/21 02:22:52;;;;;;;3.35;1.50;;;21.70;99.90;;;;;;5032715;28;20029;-42
2023/09/21 02:25:19;;;;;;;1.88;1.50;;;21.70;99.90;;;;;;5032660;28;20052;-39
2023/09/21 02:27:47;;;;;;;2.10;1.52;;;21.70;99.90;;;;;;5032714;28;20037;-40
2023/09/21 02:30:17;;;;;;;1.90;1.50;;;21.70;99.90;;;;;;5032579;28;20025;-42
2023/09/21 02:32:50;;;;;;;2.85;1.67;;;21.70;99.90;;;;;;5032641;28;20487;-41
2023/09/21 02:35:25;;;;;;;3.13;1.38;;;21.70;99.90;;;;;;5032441;28;20386;-39
2023/09/21 02:37:52;;;;;;;3.05;1.50;;;21.70;99.90;;;;;;5032602;28;20018;-39
2023/09/21 02:40:19;;;;;;;3.08;1.52;;;21.70;99.90;;;;;;5032462;28;20024;-43
2023/09/21 02:42:48;;;;;;;2.75;1.50;;;21.70;99.90;;;;;;5032525;28;20029;-41
2023/09/21 02:45:14;;;;;;;2.45;1.35;;;21.70;99.90;;;;;;5032224;28;20056;-39
2023/09/21 02:47:44;;;;;;;4.95;1.48;;;21.60;99.90;;;;;;5032347;28;20040;-42
2023/09/21 02:50:27;;;;;;;2.22;1.60;;;21.70;99.90;;;;;;5032143;28;20064;-40
2023/09/21 02:53:08;;;;;;;2.40;1.67;;;21.70;99.90;;;;;;5014150;28;20586;-39
2023/09/21 02:55:35;;;;;;;2.22;1.50;;;21.60;99.90;;;;;;5032173;28;20083;-40
2023/09/21 02:58:10;;;;;;;3.42;1.50;;;21.60;99.90;;;;;;5032159;28;20091;-41
2023/09/21 03:00:43;;;;;;;2.45;1.50;;;21.60;99.90;;;;;;5032041;28;20025;-41
2023/09/21 03:03:12;;;;;;;5.07;1.50;;;21.60;99.90;;;;;;5032072;28;20087;-39
2023/09/21 03:05:45;;;;;;;2.78;1.10;;;21.60;99.90;;;;;;5031851;28;20061;-37
2023/09/21 03:08:13;;;;;;;1.92;1.40;;;21.60;99.90;;;;;;5032060;28;20033;-45
2023/09/21 03:10:47;;;;;;;4.43;1.75;;;21.60;99.90;;;;;;5031688;28;20036;-41
2023/09/21 03:13:18;;;;;;;1.98;1.40;;;21.60;99.90;;;;;;5031945;28;20026;-43
2023/09/21 03:15:51;;;;;;;2.03;1.35;;;21.70;99.90;;;;;;5031951;28;20036;-41
2023/09/21 03:18:21;;;;;;;2.08;1.50;;;21.70;99.90;;;;;;5031930;28;20029;-41
2023/09/21 03:20:48;;;;;;;2.58;1.70;;;21.60;99.90;;;;;;5031761;28;20014;-44
2023/09/21 03:23:14;;;;;;;2.05;1.60;;;21.60;99.90;;;;;;5031725;28;20029;-39
2023/09/21 03:25:47;;;;;;;2.80;1.65;;;21.60;99.90;;;;;;5031578;28;20037;-43
2023/09/21 03:28:15;;;;;;;2.72;1.35;;;21.60;99.90;;;;;;5031850;28;20040;-41
2023/09/21 03:30:49;;;;;;;1.75;1.40;;;21.60;99.90;;;;;;5031523;28;20104;-41
2023/09/21 03:33:16;;;;;;;2.65;1.42;;;21.60;99.90;;;;;;5031557;28;20088;-39
2023/09/21 03:35:42;;;;;;;2.80;1.65;;;21.60;99.90;;;;;;5031287;28;20503;-42
2023/09/21 03:38:12;;;;;;;3.90;1.70;;;21.60;99.90;;;;;;5031545;28;20112;-40
2023/09/21 03:40:39;;;;;;;2.20;1.30;;;21.60;99.90;;;;;;5032040;28;20029;-40
2023/09/21 03:43:06;;;;;;;2.60;1.60;;;21.60;99.90;;;;;;5031516;28;20025;-40
2023/09/21 03:45:32;;;;;;;2.58;1.40;;;21.60;99.90;;;;;;5031274;28;20017;-40
2023/09/21 03:48:04;;;;;;;2.42;1.60;;;21.60;99.90;;;;;;5031451;28;20079;-40
2023/09/21 03:50:29;;;;;;;1.90;1.40;;;21.60;99.90;;;;;;5031243;28;20049;-42
2023/09/21 03:52:55;;;;;;;4.15;1.35;;;21.60;99.90;;;;;;5031507;28;20061;-41
2023/09/21 03:55:21;;;;;;;4.07;1.67;;;21.60;99.90;;;;;;5031296;28;20043;-40
2023/09/21 03:57:47;;;;;;;2.45;1.50;;;21.60;99.90;;;;;;5031258;28;20100;-42
2023/09/21 04:02:53;;;;;;;4.88;1.48;;;21.60;99.90;;;;;;5031395;28;20025;-41
2023/09/21 04:05:19;;;;;;;4.13;1.40;;;21.60;99.90;;;;;;5032256;28;20567;-42
2023/09/21 04:07:48;;;;;;;2.25;1.40;;;21.60;99.90;;;;;;5035605;28;20056;-41
2023/09/21 04:10:15;;;;;;;4.03;1.50;;;21.60;99.90;;;;;;5035402;28;20104;-43
2023/09/21 04:12:41;;;;;;;2.05;1.50;;;21.60;99.90;;;;;;5035244;28;20109;-44
2023/09/21 04:15:08;;;;;;;2.25;1.30;;;21.60;99.90;;;;;;5017327;28;20079;-45
2023/09/21 04:17:35;;;;;;;2.65;1.40;;;21.60;99.90;;;;;;5035045;28;20092;-45
2023/09/21 04:20:09;;;;;;;2.58;1.70;;;21.60;99.90;;;;;;5035038;28;20026;-38
2023/09/21 04:22:35;;;;;;;3.45;1.63;;;21.60;99.90;;;;;;5035505;28;20368;-43
2023/09/21 04:25:09;;;;;;;2.47;1.52;;;21.50;99.90;;;;;;5034872;28;20116;-40
2023/09/21 04:27:39;;;;;;;1.80;1.50;;;21.60;99.90;;;;;;5034937;28;20060;-48
2023/09/21 04:30:14;;;;;;;2.50;1.60;;;21.60;99.90;;;;;;5034723;28;20083;-44
2023/09/21 04:32:49;;;;;;;2.50;1.05;;;21.60;99.90;;;;;;5034772;28;20355;-41
2023/09/21 04:35:17;;;;;;;2.50;1.58;;;21.60;99.90;;;;;;5034870;28;20018;-43
2023/09/21 04:37:44;;;;;;;3.13;1.70;;;21.50;99.90;;;;;;5034715;28;20056;-41
2023/09/21 04:40:11;;;;;;;4.32;1.70;;;21.50;99.90;;;;;;5034537;28;20021;-41
2023/09/21 04:42:38;;;;;;;2.17;1.13;;;21.50;99.90;;;;;;5035176;28;20052;-43
2023/09/21 04:45:09;;;;;;;2.33;1.30;;;21.60;99.90;;;;;;5034743;28;20470;-38
2023/09/21 04:47:49;;;;;;;2.47;1.50;;;21.50;99.90;;;;;;5034644;28;20224;-41
2023/09/21 04:50:16;;;;;;;2.58;1.70;;;21.50;99.90;;;;;;5034542;28;20021;-44
2023/09/21 04:52:43;;;;;;;2.58;1.23;;;21.50;99.90;;;;;;5034505;28;20510;-43
2023/09/21 04:55:10;;;;;;;2.53;1.45;;;21.50;99.90;;;;;;5034819;28;20030;-38
2023/09/21 04:57:36;;;;;;;2.90;1.50;;;21.50;99.90;;;;;;5035080;28;20041;-38
2023/09/21 05:00:07;;;;;;;3.97;1.90;;;21.50;99.90;;;;;;5034401;28;20025;-41
2023/09/21 05:02:33;;;;;;;2.15;1.50;;;21.50;99.90;;;;;;5034334;28;20030;-40
2023/09/21 05:04:59;;;;;;;4.78;1.50;;;21.50;99.90;;;;;;5034127;28;20479;-39
2023/09/21 05:07:25;;;;;;;3.03;1.42;;;21.50;99.90;;;;;;5034095;28;20502;-40
2023/09/21 05:09:51;;;;;;;2.63;1.40;;;21.50;99.90;;;;;;5034383;28;20025;-42
2023/09/21 05:12:18;;;;;;;2.85;1.52;;;21.50;99.90;;;;;;5033973;28;20550;-38
2023/09/21 05:14:45;;;;;;;2.08;1.30;;;21.50;99.90;;;;;;5032640;28;20025;-42
2023/09/21 05:17:11;;;;;;;2.40;1.70;;;21.50;99.90;;;;;;5033949;28;20028;-40
2023/09/21 05:19:37;;;;;;;2.55;1.70;;;21.50;99.90;;;;;;5034033;28;20025;-39
2023/09/21 05:22:04;;;;;;;1.63;1.42;;;21.50;99.90;;;;;;5033944;28;20375;-41
2023/09/21 05:24:30;;;;;;;1.77;1.50;;;21.50;99.90;;;;;;5033801;28;20044;-41
2023/09/21 05:26:56;;;;;;;1.83;1.20;;;21.50;99.90;;;;;;5033824;28;20017;-40
2023/09/21 05:29:23;;;;;;;2.67;1.50;;;21.50;99.90;;;;;;5034039;28;20434;-40
2023/09/21 05:31:49;;;;;;;2.30;1.50;;;21.50;99.90;;;;;;5033678;28;20025;-38
2023/09/21 05:34:16;;;;;;;3.08;1.30;;;21.50;99.90;;;;;;5033657;28;20420;-39
2023/09/21 05:36:44;;;;;;;2.13;1.40;;;21.50;99.90;;;;;;5033299;28;20030;-38
2023/09/21 05:39:11;;;;;;;4.55;1.60;;;21.50;99.90;;;;;;5033701;28;20104;-38
2023/09/21 05:41:37;;;;;;;4.93;1.60;;;21.50;99.90;;;;;;5033330;28;20510;-41
2023/09/21 05:44:03;;;;;;;3.58;1.60;;;21.50;99.90;;;;;;5033671;28;20112;-39
2023/09/21 05:46:28;;;;;;;2.95;1.42;;;21.50;99.90;;;;;;5033342;28;20049;-40
2023/09/21 05:48:54;;;;;;;2.58;1.48;;;21.50;99.90;;;;;;5034069;28;20025;-39
2023/09/21 05:51:20;;;;;;;2.28;1.30;;;21.50;99.90;;;;;;5033248;28;20104;-42
2023/09/21 05:53:48;;;;;;;1.52;1.38;;;21.50;99.90;;;;;;5033955;28;20021;-38
2023/09/21 05:56:13;;;;;;;2.97;1.48;;;21.50;99.90;;;;;;5033142;28;20475;-40
2023/09/21 05:58:39;;;;;;;1.60;1.38;;;21.50;99.90;;;;;;5033280;28;20032;-37
2023/09/21 06:01:05;;;;;;;3.00;1.50;;;21.50;99.90;;;;;;5033201;28;20033;-39
2023/09/21 06:03:31;;;;;;;2.20;1.40;;;21.50;99.90;;;;;;5033220;28;20538;-40
2023/09/21 06:05:56;;;;;;;5.00;1.40;;;21.50;99.90;;;;;;5032958;28;20109;-38
2023/09/21 06:08:22;;;;;;;1.90;1.45;;;21.50;99.90;;;;;;5033143;28;20100;-40
2023/09/21 06:10:48;;;;;;;4.55;1.52;;;21.50;99.90;;;;;;5032904;28;20057;-44
2023/09/21 06:13:13;;;;;;;3.25;1.30;;;21.50;99.90;;;;;;5032904;28;20104;-38
2023/09/21 06:15:48;;;;;;;2.35;1.20;;;21.50;99.90;;;;;;5032769;28;20091;-41
2023/09/21 06:18:16;;;;;;;2.38;1.33;;;21.40;99.90;;;;;;5032802;28;20382;-39
2023/09/21 06:20:43;;;;;;;4.75;1.40;;;21.50;99.90;;;;;;5015328;28;20036;-40
2023/09/21 06:23:08;;;;;;;2.42;1.33;;;21.40;99.90;;;;;;5032921;28;20035;-40
2023/09/21 06:25:35;;;;;;;2.80;1.40;;;21.40;99.90;;;;;;5032568;28;20029;-40
2023/09/21 06:28:01;;;;;;;2.08;1.50;;;21.40;99.90;;;;;;5032161;28;20033;-39
2023/09/21 06:30:27;;;;;;;3.28;1.33;;;21.40;99.90;;;;;;5032877;28;20068;-41
2023/09/21 06:32:55;;;;;;;1.77;1.23;;;21.50;99.90;;;;;;5032428;28;20033;-40
2023/09/21 06:35:24;;;;;;;2.30;1.50;;;21.50;99.90;;;;;;5032343;28;20430;-40
2023/09/21 06:37:54;;;;;;;2.08;1.40;;;21.50;99.90;;;;;;5032512;28;20097;-38
2023/09/21 06:40:24;;;;;;;2.78;1.58;;;21.50;99.90;;;;;;5032274;28;20040;-38
2023/09/21 06:42:50;;;;;;;1.80;1.30;;;21.40;99.90;;;;;;5032714;28;20017;-40
2023/09/21 06:45:16;;;;;;;2.22;1.38;;;21.50;99.90;;;;;;5032224;28;20033;-39
2023/09/21 06:47:42;;;;;;;1.70;1.20;;;21.50;99.90;;;;;;5032487;28;20025;-40
2023/09/21 06:50:09;;;;;;;2.70;1.60;;;21.50;99.90;;;;;;5032216;28;20033;-38
2023/09/21 06:52:35;;;;;;;2.38;1.25;;;21.50;99.90;;;;;;5032349;28;20029;-40
2023/09/21 06:55:00;;;;;;;2.55;1.50;;;21.50;99.90;;;;;;5032128;28;20022;-39
2023/09/21 06:57:29;;;;;;;1.75;1.30;;;21.50;99.90;;;;;;5032169;28;20079;-38
2023/09/21 06:59:54;;;;;;;3.15;1.38;;;21.50;99.90;;;;;;5032005;28;20029;-39
2023/09/21 07:02:26;;;;;;;1.35;1.23;;;21.50;99.90;;;;;;5032144;28;20094;-39
2023/09/21 07:04:53;;;;;;;2.40;1.27;;;21.50;99.90;;;;;;5032229;28;20421;-40
2023/09/21 07:07:18;;;;;;;2.20;1.48;;;21.50;99.90;;;;;;5032183;28;20052;-39
2023/09/21 07:09:47;;;;;;;2.35;1.50;;;21.50;99.90;;;;;;5031814;28;20387;-39
2023/09/21 07:12:14;;;;;;;2.22;1.40;;;21.50;99.90;;;;;;5031884;28;20383;-42
2023/09/21 07:14:40;;;;;;;2.10;1.30;;;21.50;99.90;;;;;;5031838;28;20022;-41
2023/09/21 07:17:06;;;;;;;2.33;1.30;;;21.50;99.90;;;;;;5031714;28;20059;-40
2023/09/21 07:19:34;;;;;;;2.53;1.60;;;21.50;99.90;;;;;;5032109;28;20021;-39
2023/09/21 07:22:00;;;;;;;1.42;1.10;;;21.50;99.90;;;;;;5031792;28;20482;-39
2023/09/21 07:24:26;;;;;;;2.38;1.40;;;21.50;99.90;;;;;;5031743;28;20092;-39
2023/09/21 07:26:53;;;;;;;2.15;1.23;;;21.50;99.90;;;;;;5031902;28;20394;-39
2023/09/21 07:29:19;;;;;;;2.03;1.30;;;21.50;99.90;;;;;;5031546;28;20033;-38
2023/09/21 07:31:45;;;;;;;2.28;1.45;;;21.50;99.90;;;;;;5031637;28;20109;-42
2023/09/21 07:34:11;;;;;;;1.58;1.15;;;21.50;99.90;;;;;;5031928;28;20565;-40
2023/09/21 07:36:39;;;;;;;1.73;1.35;;;21.50;99.90;;;;;;5031401;28;20534;-39
2023/09/21 07:39:09;;;;;;;1.70;1.27;;;21.50;99.90;;;;;;5030566;28;20021;-42
2023/09/21 07:41:35;;;;;;;1.60;1.30;;;21.50;99.90;;;;;;5031315;28;20056;-41
2023/09/21 07:44:03;;;;;;;1.90;1.40;;;21.50;99.90;;;;;;5031546;28;20032;-39
2023/09/21 07:46:29;;;;;;;2.00;1.45;;;21.50;99.90;;;;;;5031337;28;20021;-40
2023/09/21 07:48:54;;;;;;;1.92;1.20;;;21.50;99.90;;;;;;5031349;28;20017;-43
2023/09/21 07:51:21;;;;;;;1.73;1.30;;;21.50;99.90;;;;;;5031486;28;20040;-39
2023/09/21 07:53:47;;;;;;;1.58;1.20;;;21.50;99.90;;;;;;5031276;28;20071;-40
2023/09/21 07:56:13;;;;;;;1.80;1.27;;;21.50;99.90;;;;;;5013295;28;20094;-39
2023/09/21 07:58:39;;;;;;;2.10;1.15;;;21.50;99.90;;;;;;5031273;28;20475;-37
2023/09/21 08:01:05;;;;;;;5.13;2.08;;;21.50;99.90;;;;;;5031249;28;20021;-40
2023/09/21 08:03:31;;;;;;;4.68;1.92;;;21.50;99.90;;;;;;5031293;28;20029;-40
2023/09/21 08:05:59;;;;;;;3.55;1.60;;;21.50;99.90;;;;;;5031086;28;20021;-38
2023/09/21 08:08:25;;;;;;;3.28;1.88;;;21.40;99.90;;;;;;5031146;28;20021;-40
2023/09/21 08:10:52;;;;;;;5.00;1.75;;;21.40;99.90;;;;;;5030930;28;20025;-44
2023/09/21 08:13:20;;;;;;;5.72;2.05;;;21.40;99.90;;;;;;5031125;28;20025;-39
2023/09/21 08:15:46;;;;;;;4.85;1.85;;;21.30;99.90;;;;;;5030877;28;20401;-39
2023/09/21 08:18:12;;;;;;;6.28;2.30;;;21.20;99.90;;;;;;5031144;28;20022;-38
2023/09/21 08:20:41;;;;;;;6.15;2.40;;;21.30;99.90;;;;;;5030962;28;20039;-38
2023/09/21 08:23:07;;;;;;;3.42;2.00;;;21.20;99.90;;;;;;5031042;28;20064;-41
2023/09/21 08:25:35;;;;;;;3.92;2.25;;;21.20;99.90;;;;;;5030760;28;20021;-37
2023/09/21 08:28:02;;;;;;;3.80;2.17;;;21.20;99.90;;;;;;5031047;28;20029;-39
2023/09/21 08:30:28;;;;;;;5.13;1.60;;;21.20;99.90;;;;;;5031001;28;20022;-38
2023/09/21 08:32:54;;;;;;;5.30;2.05;;;21.20;99.90;;;;;;5030861;28;20095;-43
2023/09/21 08:35:19;;;;;;;3.30;1.75;;;21.20;99.90;;;;;;5030793;28;20475;-41
2023/09/21 08:37:45;;;;;;;5.10;1.70;;;21.20;99.90;;;;;;5030819;28;20125;-43
2023/09/21 08:40:11;;;;;;;2.50;1.80;;;21.20;99.90;;;;;;5030542;28;20371;-39
2023/09/21 08:42:37;;;;;;;6.88;1.90;;;21.20;99.90;;;;;;5030842;28;20029;-42
2023/09/21 08:45:08;;;;;;;6.25;1.73;;;21.20;99.90;;;;;;5030770;28;20033;-39
2023/09/21 08:47:34;;;;;;;4.50;1.90;;;21.10;99.90;;;;;;5030882;28;20487;-41
2023/09/21 08:50:03;;;;;;;6.43;1.83;;;21.20;99.90;;;;;;5030876;28;20060;-40
2023/09/21 08:52:32;;;;;;;5.60;1.60;;;21.20;99.90;;;;;;5034188;28;20394;-41
2023/09/21 08:54:58;;;;;;;3.92;1.90;;;21.20;99.90;;;;;;5034403;28;20017;-39
2023/09/21 08:57:25;;;;;;;4.50;1.85;;;21.20;99.90;;;;;;5034417;28;20033;-40
2023/09/21 08:59:55;;;;;;;3.88;1.63;;;21.20;99.90;;;;;;5034365;28;20414;-37
2023/09/21 09:02:23;;;;;;;2.40;1.70;;;21.20;99.90;;;;;;5034654;28;20030;-38
2023/09/21 09:04:50;;;;;;;3.95;1.67;;;21.20;99.90;;;;;;5034415;28;20021;-39
2023/09/21 09:07:16;;;;;;;4.07;1.70;;;21.30;99.90;;;;;;5034214;28;20033;-37
2023/09/21 09:09:42;;;;;;;2.63;1.45;;;21.20;99.90;;;;;;5034254;28;20037;-39
2023/09/21 09:12:21;;;;;;;3.17;1.45;;;21.30;99.90;;;;;;5034136;28;20022;-37
2023/09/21 09:14:47;;;;;;;4.03;1.63;;;21.30;99.90;;;;;;5032655;28;20029;-38
2023/09/21 09:17:14;;;;;;;2.83;1.60;;;21.40;99.90;;;;;;5033988;28;20506;-40
2023/09/21 09:19:40;;;;;;;5.45;1.73;;;21.40;99.90;;;;;;5033909;28;20033;-37
2023/09/21 09:22:06;;;;;;;3.35;1.50;;;21.40;99.90;;;;;;5033853;28;20022;-38
2023/09/21 09:24:33;;;;;;;4.05;1.50;;;21.40;99.90;;;;;;5034085;28;20379;-38
2023/09/21 09:26:59;;;;;;;1.88;1.30;;;21.40;99.90;;;;;;5033836;28;20032;-40
2023/09/21 09:29:26;;;;;;;4.32;1.65;;;21.40;99.90;;;;;;5033870;28;20140;-38
2023/09/21 09:31:52;;;;;;;4.35;1.63;;;21.50;99.90;;;;;;5033665;28;20390;-38
2023/09/21 09:34:18;;;;;;;5.65;1.70;;;21.50;99.90;;;;;;5033495;28;20025;-38
2023/09/21 09:36:52;;;;;;;3.40;1.90;;;21.50;99.90;;;;;;5033525;28;20049;-38
2023/09/21 09:39:18;;;;;;;5.13;1.60;;;21.50;99.90;;;;;;5015971;28;20029;-38
2023/09/21 09:41:50;;;;;;;3.58;1.40;;;21.50;99.90;;;;;;5034120;28;20761;-40
2023/09/21 09:44:21;;;;;;;4.32;1.80;;;21.50;99.90;;;;;;5033703;28;20033;-40
2023/09/21 09:46:48;;;;;;;3.67;1.60;;;21.50;99.90;;;;;;5033337;28;20044;-39
2023/09/21 09:49:16;;;;;;;3.30;1.48;;;21.50;99.90;;;;;;5033489;28;20029;-39
2023/09/21 09:51:46;;;;;;;3.35;1.50;;;21.50;99.90;;;;;;5033309;28;20029;-40
2023/09/21 09:54:13;;;;;;;4.60;1.58;;;21.50;99.90;;;;;;5033277;28;20075;-39
2023/09/21 09:56:42;;;;;;;2.67;1.40;;;21.50;99.90;;;;;;5032041;28;20499;-39
2023/09/21 09:59:12;;;;;;;5.05;1.90;;;21.50;99.90;;;;;;5033186;28;20394;-39
2023/09/21 10:01:44;;;;;;;4.40;1.42;;;21.50;99.90;;;;;;5032572;28;20109;-39
2023/09/21 10:04:10;;;;;;;4.60;1.98;;;21.50;99.90;;;;;;5032987;28;20029;-39
2023/09/21 10:06:36;;;;;;;3.50;1.45;;;21.50;99.90;;;;;;5033140;28;20226;-39
2023/09/21 10:09:10;;;;;;;4.22;1.38;;;21.50;99.90;;;;;;5033011;28;20021;-39
2023/09/21 10:11:42;;;;;;;2.97;1.67;;;21.60;99.90;;;;;;5033430;28;20034;-39
2023/09/21 10:14:11;;;;;;;5.20;1.48;;;21.60;99.90;;;;;;5032903;28;20128;-39
2023/09/21 10:16:41;;;;;;;6.20;1.73;;;21.60;99.90;;;;;;5032777;28;20037;-43
2023/09/21 10:19:17;;;;;;;2.45;1.30;;;21.60;99.90;;;;;;5032985;28;20014;-40
2023/09/21 10:21:45;;;;;;;3.67;1.38;;;21.70;99.90;;;;;;5033132;28;20433;-39
2023/09/21 10:24:15;;;;;;;4.75;1.30;;;21.70;99.90;;;;;;5032663;28;20025;-39
2023/09/21 10:26:53;;;;;;;3.55;1.30;;;21.80;99.90;;;;;;5032587;28;20032;-39
2023/09/21 10:29:20;;;;;;;2.45;1.23;;;21.70;99.90;;;;;;5032895;28;20060;-39
2023/09/21 10:31:56;;;;;;;2.05;1.27;;;21.80;99.90;;;;;;5032648;28;20360;-38
2023/09/21 10:34:24;;;;;;;5.93;1.27;;;21.80;99.90;;;;;;5032494;28;20079;-39
2023/09/21 10:36:56;;;;;;;2.47;1.10;;;21.80;99.90;;;;;;5032354;28;20040;-40
2023/09/21 10:39:28;;;;;;;2.17;1.08;;;21.80;99.90;;;;;;5032636;28;20037;-41
2023/09/21 10:42:15;;;;;;;5.07;1.42;;;21.80;99.90;;;;;;5032383;28;20097;-39
2023/09/21 10:44:57;;;;;;;7.57;1.58;;;21.80;99.90;;;;;;5031980;28;20041;-39
2023/09/21 10:47:33;;;;;;;3.75;1.70;;;21.80;99.90;;;;;;5032349;28;20021;-39
2023/09/21 10:50:02;;;;;;;3.83;1.50;;;21.80;99.90;;;;;;5032334;28;20066;-41
2023/09/21 10:52:28;;;;;;;2.97;1.30;;;21.90;99.90;;;;;;5032207;28;20025;-38
2023/09/21 10:54:58;;;;;;;2.38;1.30;;;21.90;99.90;;;;;;5032132;28;20052;-39
2023/09/21 10:57:28;;;;;;;4.68;1.52;;;21.90;99.90;;;;;;5032007;28;20021;-40
2023/09/21 10:59:55;;;;;;;2.03;1.20;;;21.90;99.90;;;;;;5032123;28;20493;-39
2023/09/21 11:02:22;;;;;;;1.92;1.15;;;21.90;99.90;;;;;;5032205;28;20056;-41
2023/09/21 11:04:49;;;;;;;1.63;0.98;;;21.90;99.90;;;;;;5032130;28;20492;-41
2023/09/21 11:07:18;;;;;;;4.32;1.23;;;21.90;99.90;;;;;;5031946;28;20028;-40
2023/09/21 11:09:44;;;;;;;2.00;1.10;;;21.90;99.90;;;;;;5031889;28;20030;-42
2023/09/21 11:12:14;;;;;;;2.80;1.02;;;21.90;99.90;;;;;;5031752;28;20021;-40
2023/09/21 11:14:47;;;;;;;3.35;1.40;;;21.90;99.90;;;;;;5013813;28;20095;-41
2023/09/21 11:17:16;;;;;;;4.97;1.67;;;21.90;99.90;;;;;;5031807;28;20052;-42
2023/09/21 11:19:43;;;;;;;7.30;1.30;;;21.90;99.90;;;;;;5031829;28;20026;-39
2023/09/21 11:22:15;;;;;;;2.92;1.30;;;21.90;99.90;;;;;;5031770;28;20026;-39
2023/09/21 11:24:42;;;;;;;2.33;1.33;;;21.90;99.90;;;;;;5031585;28;20540;-39
2023/09/21 11:27:10;;;;;;;5.63;1.48;;;21.90;99.90;;;;;;5031601;28;20048;-40
2023/09/21 11:29:39;;;;;;;5.72;1.40;;;21.90;99.90;;;;;;5031685;28;20049;-40
2023/09/21 11:32:07;;;;;;;3.40;1.35;;;21.90;99.90;;;;;;5013780;28;20018;-40
2023/09/21 11:34:36;;;;;;;3.80;1.45;;;21.90;99.90;;;;;;5031444;28;20021;-40
2023/09/21 11:37:04;;;;;;;2.47;1.27;;;22.00;99.90;;;;;;5031395;28;20021;-43
2023/09/21 11:39:30;;;;;;;2.00;1.20;;;22.00;99.90;;;;;;5031590;28;20056;-41
2023/09/21 11:41:57;;;;;;;2.08;1.20;;;22.00;99.90;;;;;;5031326;28;20044;-39
2023/09/21 11:44:27;;;;;;;2.65;1.40;;;22.00;99.90;;;;;;5032070;28;20474;-41
2023/09/21 11:46:57;;;;;;;2.67;1.20;;;22.10;99.90;;;;;;5031433;28;20026;-42
2023/09/21 11:49:43;;;;;;;2.60;1.10;;;22.10;99.90;;;;;;5013678;28;20021;-41
2023/09/21 11:52:11;;;;;;;1.73;1.00;;;22.10;99.90;;;;;;5031415;28;20017;-39
2023/09/21 11:54:38;;;;;;;2.50;1.20;;;22.10;99.90;;;;;;5031302;28;20064;-39
2023/09/21 11:57:09;;;;;;;5.85;1.23;;;22.20;99.90;;;;;;5031279;28;20025;-42
2023/09/21 11:59:39;;;;;;;2.35;1.10;;;22.20;99.90;;;;;;5031427;28;20022;-39
2023/09/21 12:02:16;;;;;;;3.20;1.30;;;22.20;99.90;;;;;;5031229;28;20021;-41
2023/09/21 12:04:43;;;;;;;2.70;0.90;;;22.20;99.90;;;;;;5031141;28;20467;-42
2023/09/21 12:07:09;;;;;;;3.55;1.00;;;22.30;99.90;;;;;;5031193;28;20151;-39
2023/09/21 12:09:36;;;;;;;4.68;1.40;;;22.30;99.90;;;;;;5031182;28;20026;-40
2023/09/21 12:12:04;;;;;;;2.53;0.98;;;22.30;99.90;;;;;;5031093;28;20368;-42
2023/09/21 12:14:30;;;;;;;2.75;1.02;;;22.30;99.90;;;;;;5030983;28;20104;-43
2023/09/21 12:16:55;;;;;;;2.30;1.00;;;22.30;99.90;;;;;;5031024;28;20492;-40
2023/09/21 12:19:23;;;;;;;3.67;1.50;;;22.30;99.90;;;;;;5031087;28;20029;-39
2023/09/21 12:21:48;;;;;;;1.50;1.13;;;22.30;99.90;;;;;;5031025;28;20026;-44
2023/09/21 12:24:18;;;;;;;2.17;1.20;;;22.30;99.90;;;;;;5031286;28;20391;-41
2023/09/21 12:26:44;;;;;;;3.75;1.08;;;22.30;99.90;;;;;;5034379;28;20525;-39
2023/09/21 12:29:09;;;;;;;2.50;1.23;;;22.30;99.90;;;;;;5034944;28;20029;-42
2023/09/21 12:31:36;;;;;;;2.33;1.13;;;22.30;99.90;;;;;;5034842;28;20029;-43
2023/09/21 12:34:02;;;;;;;3.28;1.15;;;22.30;99.90;;;;;;5035053;28;20036;-43
2023/09/21 12:36:28;;;;;;;1.42;0.90;;;22.30;99.90;;;;;;5017226;28;20025;-43
2023/09/21 12:38:54;;;;;;;2.35;1.40;;;22.30;99.90;;;;;;5035291;28;20067;-44
2023/09/21 12:41:20;;;;;;;3.92;1.20;;;22.30;99.90;;;;;;5034987;28;20040;-41
2023/09/21 12:43:46;;;;;;;2.22;1.10;;;22.30;99.90;;;;;;5034676;28;20398;-39
2023/09/21 12:46:12;;;;;;;1.67;1.20;;;22.20;99.90;;;;;;5034737;28;20022;-41
2023/09/21 12:48:38;;;;;;;1.95;1.10;;;22.20;99.90;;;;;;5035441;28;20041;-42
2023/09/21 12:51:04;;;;;;;1.73;1.20;;;22.20;99.90;;;;;;5035455;28;20030;-39
2023/09/21 12:53:30;;;;;;;5.57;1.10;;;22.20;99.90;;;;;;5034526;28;20065;-39
2023/09/21 12:55:56;;;;;;;1.40;1.10;;;22.20;99.90;;;;;;5034326;28;20475;-43